< < Back
Terminal Aerodrome Forecast


Current Version              Previous Versions:   1  2  3  4  5  6  7  8  9  

Terminal Aerodrome Forecast

413
FTUS42 KCAE 060235 AAA
TAFAGS
TAF AMD
KAGS 060235Z 0603/0624 29009KT P6SM SCT060
     FM061500 30010KT P6SM SCT050=



Latest METAR

554
SAUS70 KWBC 060300 RRE
MTRAGS
METAR KAGS 060253Z 00000KT 10SM CLR 11/08 A2978 RMK AO2 SLP083 T01060078
51019


USA.gov is the U.S. government's official web portal to all federal, state and local government web resources and services.